Time;durP1;ratioP1;P1;durP2;ratioP2;P2;SDS_P1;SDS_P2;PMS_P1;PMS_P2;Temp;Humidity;BMP_temperature;BMP_pressure;BME280_temperature;BME280_humidity;BME280_pressure;Samples;Min_cycle;Max_cycle;Signal;HPM_P1;HPM_P2
2024/01/23 00:00:19;;;;;;;5.83;2.03;;;9.60;99.90;;;;;;5013835;28;20185;-68
2024/01/23 00:02:45;;;;;;;7.83;2.13;;;9.60;99.90;;;;;;5013106;28;20729;-67
2024/01/23 00:05:10;;;;;;;4.23;3.20;;;9.60;99.90;;;;;;5017989;28;20258;-67
2024/01/23 00:07:36;;;;;;;5.33;2.20;;;9.60;99.90;;;;;;5012917;28;20192;-68
2024/01/23 00:10:02;;;;;;;4.40;2.20;;;9.60;99.90;;;;;;5012348;28;20198;-67
2024/01/23 00:12:28;;;;;;;6.30;2.37;;;9.50;99.90;;;;;;5024255;28;20757;-67
2024/01/23 00:14:54;;;;;;;7.17;2.80;;;9.50;99.90;;;;;;5016237;28;20538;-68
2024/01/23 00:17:20;;;;;;;7.30;3.03;;;9.60;99.90;;;;;;5022293;28;20641;-68
2024/01/23 00:19:45;;;;;;;3.73;1.83;;;9.50;99.90;;;;;;5010199;28;20467;-67
2024/01/23 00:22:11;;;;;;;8.50;3.10;;;9.40;99.90;;;;;;5020329;28;20180;-67
2024/01/23 00:24:36;;;;;;;4.17;2.30;;;9.40;99.90;;;;;;5016702;28;20353;-67
2024/01/23 00:27:02;;;;;;;7.27;2.10;;;9.40;99.90;;;;;;5018449;28;20204;-67
2024/01/23 00:29:28;;;;;;;7.10;2.70;;;9.40;99.90;;;;;;5015949;28;20187;-67
2024/01/23 00:31:53;;;;;;;7.73;2.97;;;9.40;99.90;;;;;;5020402;28;20208;-67
2024/01/23 00:34:19;;;;;;;7.60;2.20;;;9.40;99.90;;;;;;5016703;28;21713;-67
2024/01/23 00:36:44;;;;;;;9.53;2.07;;;9.40;99.90;;;;;;5013094;28;20580;-67
2024/01/23 00:39:10;;;;;;;6.70;2.50;;;9.40;99.90;;;;;;5018652;28;20196;-67
2024/01/23 00:41:35;;;;;;;9.03;2.00;;;9.40;99.90;;;;;;5011668;28;20506;-67
2024/01/23 00:44:01;;;;;;;13.53;2.50;;;9.30;99.90;;;;;;5016469;28;20205;-67
2024/01/23 00:46:27;;;;;;;12.77;2.93;;;9.40;99.90;;;;;;5014940;28;20181;-67
2024/01/23 00:48:53;;;;;;;7.20;2.63;;;9.40;99.90;;;;;;5016745;28;20180;-67
2024/01/23 00:51:18;;;;;;;7.67;1.90;;;9.40;99.90;;;;;;5019818;28;20427;-67
2024/01/23 00:53:44;;;;;;;6.17;2.27;;;9.40;99.90;;;;;;5012125;28;20638;-66
2024/01/23 00:56:09;;;;;;;5.20;1.77;;;9.50;99.90;;;;;;5022478;28;20181;-66
2024/01/23 00:58:35;;;;;;;10.50;2.50;;;9.60;99.90;;;;;;5016896;28;20196;-67
2024/01/23 01:01:00;;;;;;;8.87;2.63;;;9.60;99.90;;;;;;5020867;28;20872;-67
2024/01/23 01:03:26;;;;;;;5.43;2.10;;;9.50;99.90;;;;;;5013942;28;20213;-67
2024/01/23 01:05:52;;;;;;;6.97;2.50;;;9.50;99.90;;;;;;5008235;28;20655;-67
2024/01/23 01:08:17;;;;;;;8.87;2.00;;;9.50;99.90;;;;;;5016966;28;20886;-67
2024/01/23 01:10:43;;;;;;;10.20;2.30;;;9.50;99.90;;;;;;5021250;28;20192;-67
2024/01/23 01:13:09;;;;;;;6.50;2.27;;;9.60;99.90;;;;;;5018535;28;20212;-67
2024/01/23 01:15:34;;;;;;;7.17;2.47;;;9.70;99.90;;;;;;5018403;28;20664;-67
2024/01/23 01:18:00;;;;;;;9.80;2.50;;;9.70;99.90;;;;;;5015793;28;20192;-67
2024/01/23 01:20:26;;;;;;;5.00;2.33;;;9.60;99.90;;;;;;5012064;28;20184;-67
2024/01/23 01:22:51;;;;;;;9.43;2.03;;;9.70;99.90;;;;;;5029820;28;20280;-67
2024/01/23 01:25:18;;;;;;;9.53;2.60;;;9.70;99.90;;;;;;5016474;28;20208;-67
2024/01/23 01:27:43;;;;;;;11.60;2.10;;;9.70;99.90;;;;;;5021416;28;20196;-67
2024/01/23 01:30:09;;;;;;;9.40;3.20;;;9.70;99.90;;;;;;5021191;28;20427;-67
2024/01/23 01:32:35;;;;;;;9.50;2.17;;;9.60;99.90;;;;;;5015825;28;20208;-67
2024/01/23 01:35:01;;;;;;;3.10;1.60;;;9.60;99.90;;;;;;5018470;28;20827;-67
2024/01/23 01:37:26;;;;;;;12.20;3.07;;;9.60;99.90;;;;;;5013085;28;21102;-67
2024/01/23 01:39:52;;;;;;;17.90;2.60;;;9.50;99.90;;;;;;5015222;28;20188;-68
2024/01/23 01:42:17;;;;;;;7.53;2.63;;;9.50;99.90;;;;;;5017561;28;20196;-68
2024/01/23 01:44:43;;;;;;;9.43;3.03;;;9.40;99.90;;;;;;5019661;28;21350;-67
2024/01/23 01:47:10;;;;;;;7.97;2.53;;;9.50;99.90;;;;;;5014789;28;20180;-67
2024/01/23 01:49:36;;;;;;;8.70;2.47;;;9.50;99.90;;;;;;5019191;28;20625;-67
2024/01/23 01:52:02;;;;;;;14.17;3.30;;;9.50;99.90;;;;;;5015441;28;20484;-67
2024/01/23 01:54:29;;;;;;;7.03;3.30;;;9.50;99.90;;;;;;5017049;28;20216;-67
2024/01/23 01:56:55;;;;;;;6.93;2.37;;;9.40;99.90;;;;;;5015949;28;20503;-67
2024/01/23 01:59:21;;;;;;;10.90;3.13;;;9.40;99.90;;;;;;5015786;28;20450;-67
2024/01/23 02:01:47;;;;;;;7.80;2.37;;;9.40;99.90;;;;;;5013478;28;20475;-68
2024/01/23 02:04:14;;;;;;;12.90;2.33;;;9.40;99.90;;;;;;5013372;28;20697;-67
2024/01/23 02:06:40;;;;;;;15.23;3.00;;;9.40;99.90;;;;;;5009427;28;20197;-68
2024/01/23 02:09:05;;;;;;;8.73;2.70;;;9.50;99.90;;;;;;5016829;28;20428;-67
2024/01/23 02:11:31;;;;;;;14.70;2.50;;;9.50;99.90;;;;;;5014991;28;20474;-67
2024/01/23 02:13:57;;;;;;;8.57;3.03;;;9.50;99.90;;;;;;5019147;28;20444;-67
2024/01/23 02:16:23;;;;;;;9.47;2.87;;;9.50;99.90;;;;;;5020187;28;20236;-67
2024/01/23 02:18:48;;;;;;;15.40;2.80;;;9.60;99.90;;;;;;5023380;28;20421;-68
2024/01/23 02:21:15;;;;;;;12.77;3.00;;;9.60;99.90;;;;;;5021415;28;20255;-68
2024/01/23 02:23:41;;;;;;;11.13;2.60;;;9.60;99.90;;;;;;5022090;28;20670;-68
2024/01/23 02:26:07;;;;;;;12.13;3.23;;;9.70;99.90;;;;;;5014030;28;20442;-68
2024/01/23 02:28:32;;;;;;;11.20;2.67;;;9.70;99.90;;;;;;5020072;28;20423;-67
2024/01/23 02:30:58;;;;;;;11.67;3.50;;;9.70;99.90;;;;;;5009858;28;20177;-67
2024/01/23 02:33:23;;;;;;;15.10;3.17;;;9.50;99.90;;;;;;5016400;28;20216;-68
2024/01/23 02:35:49;;;;;;;8.50;2.80;;;9.50;99.90;;;;;;5013097;28;20172;-67
2024/01/23 02:38:15;;;;;;;11.00;3.03;;;9.50;99.90;;;;;;5019178;28;20195;-68
2024/01/23 02:40:40;;;;;;;13.67;3.87;;;9.50;99.90;;;;;;5013721;28;20186;-68
2024/01/23 02:43:06;;;;;;;7.80;2.97;;;9.50;99.90;;;;;;5026961;28;20501;-67
2024/01/23 02:45:32;;;;;;;21.30;3.03;;;9.60;99.90;;;;;;5016862;28;20195;-67
2024/01/23 02:47:57;;;;;;;9.40;2.80;;;9.60;99.90;;;;;;5012924;28;20192;-67
2024/01/23 02:50:23;;;;;;;10.87;3.40;;;9.50;99.90;;;;;;5022704;28;20419;-67
2024/01/23 02:52:51;;;;;;;17.23;3.30;;;9.60;99.90;;;;;;5017841;28;20200;-69
2024/01/23 02:55:17;;;;;;;15.30;3.63;;;9.60;99.90;;;;;;5011990;28;20287;-67
2024/01/23 02:57:42;;;;;;;18.53;3.33;;;9.60;99.90;;;;;;5016910;28;20506;-67
2024/01/23 03:00:08;;;;;;;13.63;2.40;;;9.70;99.90;;;;;;5016695;28;20185;-67
2024/01/23 03:02:34;;;;;;;13.27;2.90;;;9.70;99.90;;;;;;5014154;28;20203;-67
2024/01/23 03:04:59;;;;;;;13.40;2.80;;;9.60;99.90;;;;;;5016905;28;21079;-67
2024/01/23 03:07:25;;;;;;;12.33;3.20;;;9.60;99.90;;;;;;5019707;28;20198;-68
2024/01/23 03:09:52;;;;;;;15.30;3.47;;;9.50;99.90;;;;;;5020005;28;20192;-68
2024/01/23 03:12:20;;;;;;;12.43;3.23;;;9.50;99.90;;;;;;5022626;28;20196;-68
2024/01/23 03:14:47;;;;;;;10.57;3.43;;;9.50;99.90;;;;;;5013542;28;20451;-68
2024/01/23 03:17:14;;;;;;;13.53;2.90;;;9.50;99.90;;;;;;5024687;28;20450;-68
2024/01/23 03:19:40;;;;;;;14.13;3.50;;;9.30;99.90;;;;;;5014022;28;20419;-68
2024/01/23 03:22:07;;;;;;;16.53;3.07;;;9.40;99.90;;;;;;5008608;28;20467;-68
2024/01/23 03:24:33;;;;;;;11.23;3.10;;;9.40;99.90;;;;;;5021892;28;22579;-68
2024/01/23 03:26:59;;;;;;;11.80;3.43;;;9.30;99.90;;;;;;5010533;28;20515;-68
2024/01/23 03:29:27;;;;;;;9.33;3.03;;;9.40;99.90;;;;;;5019001;28;20517;-68
2024/01/23 03:31:52;;;;;;;16.20;3.40;;;9.30;99.90;;;;;;5010847;28;21349;-68
2024/01/23 03:34:19;;;;;;;9.63;2.57;;;9.20;99.90;;;;;;5015028;28;20486;-68
2024/01/23 03:36:45;;;;;;;16.07;3.07;;;9.20;99.90;;;;;;5014116;28;20172;-69
2024/01/23 03:39:11;;;;;;;11.77;2.53;;;9.30;99.90;;;;;;5013739;28;21073;-68
2024/01/23 03:41:37;;;;;;;13.20;3.20;;;9.30;99.90;;;;;;5014220;28;20187;-68
2024/01/23 03:44:05;;;;;;;12.77;3.83;;;9.30;99.90;;;;;;5010611;28;20460;-68
2024/01/23 03:46:32;;;;;;;13.07;3.03;;;9.30;99.90;;;;;;5015470;28;20579;-68
2024/01/23 03:48:57;;;;;;;9.63;2.60;;;9.30;99.90;;;;;;5023373;28;20553;-68
2024/01/23 03:51:23;;;;;;;10.90;3.10;;;9.30;99.90;;;;;;5018322;28;20968;-68
2024/01/23 03:53:48;;;;;;;9.87;3.23;;;9.30;99.90;;;;;;5018939;28;20204;-68
2024/01/23 03:56:15;;;;;;;15.53;3.03;;;9.30;99.90;;;;;;5024725;28;20204;-68
2024/01/23 03:58:42;;;;;;;9.87;3.20;;;9.30;99.90;;;;;;5017304;28;20185;-67
2024/01/23 04:01:07;;;;;;;16.13;3.53;;;9.30;99.90;;;;;;5015651;28;20847;-68
2024/01/23 04:03:33;;;;;;;12.23;3.03;;;9.20;99.90;;;;;;5020885;28;20477;-68
2024/01/23 04:05:59;;;;;;;8.90;2.97;;;9.20;99.90;;;;;;5017868;28;20229;-68
2024/01/23 04:08:24;;;;;;;17.47;3.33;;;9.20;99.90;;;;;;5021735;28;20203;-68
2024/01/23 04:10:50;;;;;;;14.60;3.17;;;9.20;99.90;;;;;;5024284;28;20185;-68
2024/01/23 04:13:16;;;;;;;10.13;2.57;;;9.10;99.90;;;;;;5022253;28;20212;-68
2024/01/23 04:15:41;;;;;;;14.00;3.70;;;9.10;99.90;;;;;;5021856;28;20211;-67
2024/01/23 04:18:07;;;;;;;9.93;2.60;;;9.20;99.90;;;;;;5018866;28;20213;-68
2024/01/23 04:20:32;;;;;;;13.37;3.90;;;9.10;99.90;;;;;;5016452;28;20268;-68
2024/01/23 04:22:59;;;;;;;13.50;3.00;;;9.10;99.90;;;;;;5014141;28;20191;-68
2024/01/23 04:25:24;;;;;;;15.80;2.70;;;9.20;99.90;;;;;;5016844;28;20226;-68
2024/01/23 04:27:52;;;;;;;12.87;2.77;;;9.10;99.90;;;;;;5015146;28;20511;-68
2024/01/23 04:30:18;;;;;;;8.37;2.67;;;9.10;99.90;;;;;;5015190;28;20658;-68
2024/01/23 04:32:44;;;;;;;15.13;4.10;;;9.00;99.90;;;;;;5012314;28;20467;-68
2024/01/23 04:35:11;;;;;;;10.23;2.60;;;8.90;99.90;;;;;;5015933;28;20204;-67
2024/01/23 04:37:37;;;;;;;9.43;2.80;;;8.90;99.90;;;;;;5017636;28;21269;-68
2024/01/23 04:40:07;;;;;;;10.10;2.87;;;9.00;99.90;;;;;;5015358;28;20434;-68
2024/01/23 04:42:33;;;;;;;6.83;2.80;;;9.00;99.90;;;;;;5012048;28;20283;-67
2024/01/23 04:44:58;;;;;;;9.87;3.60;;;9.00;99.90;;;;;;5015293;28;21079;-68
2024/01/23 04:47:24;;;;;;;10.73;2.60;;;8.90;99.90;;;;;;5011042;28;20474;-67
2024/01/23 04:49:49;;;;;;;9.00;2.80;;;8.90;99.90;;;;;;5012250;28;20217;-67
2024/01/23 04:52:15;;;;;;;6.60;2.53;;;8.90;99.90;;;;;;5012047;28;20623;-67
2024/01/23 04:54:41;;;;;;;7.77;2.30;;;8.80;99.90;;;;;;5014582;28;20216;-67
2024/01/23 04:57:07;;;;;;;9.10;2.73;;;8.80;99.90;;;;;;5011705;28;20177;-67
2024/01/23 04:59:32;;;;;;;10.23;2.50;;;8.80;99.90;;;;;;5018935;28;20489;-67
2024/01/23 05:01:58;;;;;;;10.57;2.93;;;8.80;99.90;;;;;;5012519;28;20180;-68
2024/01/23 05:04:24;;;;;;;12.60;2.50;;;8.80;99.90;;;;;;5019718;28;20204;-66
2024/01/23 05:06:50;;;;;;;12.23;3.17;;;8.80;99.90;;;;;;5015220;28;20983;-67
2024/01/23 05:09:15;;;;;;;6.83;2.60;;;8.70;99.90;;;;;;5013429;28;20185;-67
2024/01/23 05:11:41;;;;;;;8.10;2.33;;;8.70;99.90;;;;;;5016709;28;20208;-67
2024/01/23 05:14:07;;;;;;;6.23;2.60;;;8.70;99.90;;;;;;5009872;28;20201;-67
2024/01/23 05:16:32;;;;;;;8.20;2.73;;;8.70;99.90;;;;;;5020506;28;20186;-67
2024/01/23 05:18:58;;;;;;;12.23;2.50;;;8.80;99.90;;;;;;5017849;28;20545;-67
2024/01/23 05:21:24;;;;;;;13.70;2.73;;;8.90;99.90;;;;;;5012564;28;20185;-67
2024/01/23 05:23:49;;;;;;;15.87;3.37;;;8.90;99.90;;;;;;5014340;28;20193;-67
2024/01/23 05:26:15;;;;;;;15.50;4.00;;;8.90;99.90;;;;;;5016253;28;20181;-67
2024/01/23 05:28:41;;;;;;;5.83;1.90;;;8.90;99.90;;;;;;5014496;28;20177;-67
2024/01/23 05:31:07;;;;;;;9.70;2.80;;;8.90;99.90;;;;;;5013452;28;20428;-67
2024/01/23 05:33:33;;;;;;;8.10;2.60;;;8.90;99.90;;;;;;5016457;28;20467;-67
2024/01/23 05:35:58;;;;;;;5.57;2.33;;;8.90;99.90;;;;;;5013580;28;20427;-67
2024/01/23 05:38:24;;;;;;;5.43;2.00;;;8.90;99.90;;;;;;5014352;28;20226;-66
2024/01/23 05:40:49;;;;;;;10.73;2.60;;;8.90;99.90;;;;;;5011065;28;20187;-67
2024/01/23 05:43:15;;;;;;;5.57;1.93;;;8.90;99.90;;;;;;5009398;28;20201;-67
2024/01/23 05:45:40;;;;;;;10.07;2.47;;;8.80;99.90;;;;;;5009862;28;20189;-67
2024/01/23 05:48:06;;;;;;;5.77;1.97;;;8.70;99.90;;;;;;5007584;28;20188;-67
2024/01/23 05:50:32;;;;;;;8.83;1.73;;;8.70;99.90;;;;;;5015417;28;20196;-67
2024/01/23 05:52:57;;;;;;;4.77;2.00;;;8.60;99.90;;;;;;5017778;28;20208;-67
2024/01/23 05:55:23;;;;;;;5.13;1.93;;;8.60;99.90;;;;;;5015712;28;20183;-67
2024/01/23 05:57:49;;;;;;;5.47;2.10;;;8.60;99.90;;;;;;5011611;28;20181;-67
2024/01/23 06:00:15;;;;;;;5.37;1.73;;;8.60;99.90;;;;;;5012125;28;20541;-67
2024/01/23 06:02:40;;;;;;;4.30;1.70;;;8.70;99.90;;;;;;5016524;28;20561;-67
2024/01/23 06:05:08;;;;;;;9.53;2.50;;;8.70;99.90;;;;;;5011344;28;20462;-67
2024/01/23 06:07:38;;;;;;;5.30;2.23;;;8.70;99.90;;;;;;5014248;28;20200;-66
2024/01/23 06:10:05;;;;;;;6.27;1.80;;;8.80;99.90;;;;;;5013939;28;20428;-66
2024/01/23 06:12:30;;;;;;;6.93;2.43;;;8.80;99.90;;;;;;5013680;28;21100;-66
2024/01/23 06:14:56;;;;;;;10.40;2.40;;;8.70;99.90;;;;;;5016052;28;20526;-66
2024/01/23 06:17:21;;;;;;;6.70;2.10;;;8.70;99.90;;;;;;5013256;28;20181;-66
2024/01/23 06:19:47;;;;;;;4.67;1.93;;;8.70;99.90;;;;;;5016290;28;20550;-67
2024/01/23 06:22:13;;;;;;;7.20;2.40;;;8.70;99.90;;;;;;5012960;28;20185;-67
2024/01/23 06:24:39;;;;;;;5.43;1.80;;;8.70;99.90;;;;;;5013461;28;20247;-67
2024/01/23 06:27:05;;;;;;;7.40;2.37;;;8.70;99.90;;;;;;5014992;28;20921;-67
2024/01/23 06:29:30;;;;;;;11.90;2.10;;;8.60;99.90;;;;;;5017242;28;20607;-67
2024/01/23 06:31:56;;;;;;;5.93;2.07;;;8.40;99.90;;;;;;5012567;28;20217;-67
2024/01/23 06:34:22;;;;;;;14.07;2.13;;;8.50;99.90;;;;;;5017264;28;20235;-66
2024/01/23 06:36:47;;;;;;;9.20;2.50;;;8.40;99.90;;;;;;5011063;28;20185;-66
2024/01/23 06:39:13;;;;;;;6.97;2.13;;;8.30;99.90;;;;;;5015955;28;20188;-67
2024/01/23 06:41:39;;;;;;;3.80;1.70;;;8.30;99.90;;;;;;5009845;28;20711;-68
2024/01/23 06:44:05;;;;;;;4.20;1.73;;;8.30;99.90;;;;;;5019688;28;20197;-67
2024/01/23 06:46:30;;;;;;;4.77;1.87;;;8.40;99.90;;;;;;5015517;28;20187;-68
2024/01/23 06:48:56;;;;;;;9.20;2.00;;;8.30;99.90;;;;;;5007262;28;20185;-67
2024/01/23 06:51:22;;;;;;;3.73;1.50;;;8.30;99.90;;;;;;5013383;28;20185;-67
2024/01/23 06:53:48;;;;;;;4.00;1.67;;;8.20;99.90;;;;;;5011238;28;20593;-67
2024/01/23 06:56:13;;;;;;;4.53;2.20;;;8.20;99.90;;;;;;5012000;28;20470;-67
2024/01/23 06:58:39;;;;;;;5.70;1.70;;;8.10;99.90;;;;;;5010043;28;20411;-67
2024/01/23 07:01:04;;;;;;;9.97;2.67;;;8.10;99.90;;;;;;5011708;28;20176;-67
2024/01/23 07:03:30;;;;;;;4.37;2.27;;;8.10;99.90;;;;;;5019992;28;20279;-67
2024/01/23 07:05:56;;;;;;;7.10;2.43;;;8.10;99.90;;;;;;5014760;28;20188;-67
2024/01/23 07:08:21;;;;;;;5.87;2.00;;;8.10;99.90;;;;;;5013853;28;20223;-67
2024/01/23 07:10:47;;;;;;;5.60;1.50;;;8.10;99.90;;;;;;5007414;28;20189;-67
2024/01/23 07:13:13;;;;;;;5.00;1.63;;;8.10;99.90;;;;;;5011350;28;20199;-68
2024/01/23 07:15:39;;;;;;;12.10;2.37;;;8.00;99.90;;;;;;5005804;28;20189;-68
2024/01/23 07:18:04;;;;;;;7.53;2.33;;;8.00;99.90;;;;;;5011841;28;20795;-67
2024/01/23 07:20:30;;;;;;;7.30;2.30;;;8.00;99.90;;;;;;5011434;28;21207;-68
2024/01/23 07:22:56;;;;;;;8.10;2.63;;;8.00;99.90;;;;;;5015789;28;20668;-67
2024/01/23 07:25:21;;;;;;;10.43;2.90;;;8.00;99.90;;;;;;5010825;28;20181;-67
2024/01/23 07:27:47;;;;;;;10.13;2.40;;;7.90;99.90;;;;;;5014740;28;20319;-67
2024/01/23 07:30:13;;;;;;;13.13;2.43;;;8.00;99.90;;;;;;5011300;28;20195;-67
2024/01/23 07:32:38;;;;;;;9.57;2.80;;;7.90;99.90;;;;;;5014501;28;20204;-68
2024/01/23 07:35:04;;;;;;;11.53;2.87;;;8.00;99.90;;;;;;5009444;28;20200;-67
2024/01/23 07:37:30;;;;;;;5.17;2.07;;;7.90;99.90;;;;;;5010672;28;20597;-67
2024/01/23 07:39:55;;;;;;;8.03;2.73;;;7.90;99.90;;;;;;5010943;28;20177;-67
2024/01/23 07:42:21;;;;;;;10.57;2.00;;;7.80;99.90;;;;;;5013918;28;20185;-67
2024/01/23 07:44:47;;;;;;;9.50;3.70;;;7.80;99.90;;;;;;5008827;28;20314;-67
2024/01/23 07:47:13;;;;;;;11.20;2.63;;;7.70;99.90;;;;;;5009873;28;20352;-67
2024/01/23 07:49:38;;;;;;;9.60;4.33;;;7.80;99.90;;;;;;5010599;28;20432;-67
2024/01/23 07:52:04;;;;;;;6.90;3.13;;;7.80;99.90;;;;;;5008923;28;20210;-67
2024/01/23 07:54:32;;;;;;;8.00;2.30;;;7.80;99.90;;;;;;5017659;28;20208;-67
2024/01/23 07:56:58;;;;;;;8.10;2.27;;;7.80;99.90;;;;;;5014567;28;20473;-67
2024/01/23 07:59:24;;;;;;;7.80;4.37;;;7.80;99.90;;;;;;5014663;28;20428;-67
2024/01/23 08:01:49;;;;;;;9.10;2.90;;;7.80;99.90;;;;;;5014869;28;20458;-67
2024/01/23 08:04:15;;;;;;;16.17;3.13;;;7.90;99.90;;;;;;5010858;28;20575;-67
2024/01/23 08:06:41;;;;;;;10.67;3.60;;;8.00;99.90;;;;;;5013707;28;20447;-67
2024/01/23 08:09:06;;;;;;;12.53;3.07;;;8.10;99.90;;;;;;5012288;28;20195;-67
2024/01/23 08:11:32;;;;;;;12.53;4.10;;;8.20;99.90;;;;;;5011730;28;20597;-68
2024/01/23 08:13:58;;;;;;;8.20;3.00;;;8.20;99.90;;;;;;5011258;28;20845;-67
2024/01/23 08:16:25;;;;;;;9.00;3.03;;;8.20;99.90;;;;;;5012276;28;20258;-67
2024/01/23 08:18:51;;;;;;;9.50;2.90;;;8.20;99.90;;;;;;5012447;28;20567;-67
2024/01/23 08:21:17;;;;;;;15.57;4.30;;;8.20;99.90;;;;;;5008446;28;20493;-67
2024/01/23 08:23:43;;;;;;;8.57;3.17;;;8.20;99.90;;;;;;5013975;28;20208;-67
2024/01/23 08:26:08;;;;;;;7.13;3.10;;;8.20;99.90;;;;;;5009974;28;20430;-67
2024/01/23 08:28:34;;;;;;;16.10;3.93;;;8.20;99.90;;;;;;5012149;28;20424;-67
2024/01/23 08:31:03;;;;;;;15.40;4.40;;;8.30;99.90;;;;;;5009809;28;20188;-67
2024/01/23 08:33:29;;;;;;;15.97;3.80;;;8.30;99.90;;;;;;5012175;28;20196;-67
2024/01/23 08:35:55;;;;;;;9.17;2.97;;;8.30;99.90;;;;;;5014380;28;20439;-67
2024/01/23 08:38:21;;;;;;;9.57;2.80;;;8.40;99.90;;;;;;5014263;28;21027;-67
2024/01/23 08:40:46;;;;;;;11.77;3.13;;;8.40;99.90;;;;;;5012198;28;20183;-67
2024/01/23 08:43:12;;;;;;;12.73;3.90;;;8.40;99.90;;;;;;5011689;28;20196;-67
2024/01/23 08:45:38;;;;;;;13.60;3.07;;;8.40;99.90;;;;;;5013418;28;20188;-67
2024/01/23 08:48:04;;;;;;;17.13;4.70;;;8.50;99.90;;;;;;5014550;28;20234;-67
2024/01/23 08:50:30;;;;;;;7.33;2.30;;;8.50;99.90;;;;;;5010991;28;20269;-67
2024/01/23 08:52:56;;;;;;;10.00;3.17;;;8.50;99.90;;;;;;5016498;28;21041;-67
2024/01/23 08:55:21;;;;;;;10.07;2.60;;;8.50;99.90;;;;;;5012351;28;20189;-67
2024/01/23 08:57:47;;;;;;;9.40;2.60;;;8.50;99.90;;;;;;5019311;28;20255;-68
2024/01/23 09:00:13;;;;;;;10.63;3.30;;;8.60;99.90;;;;;;5016708;28;20570;-68
2024/01/23 09:02:39;;;;;;;11.40;2.70;;;8.50;99.90;;;;;;5020805;28;20541;-68
2024/01/23 09:05:05;;;;;;;8.40;2.53;;;8.50;99.90;;;;;;5013930;28;20558;-69
2024/01/23 09:07:31;;;;;;;10.33;2.67;;;8.50;99.90;;;;;;5012923;28;20536;-66
2024/01/23 09:09:56;;;;;;;9.17;3.37;;;8.60;99.90;;;;;;5012352;28;20510;-68
2024/01/23 09:12:22;;;;;;;10.73;3.20;;;8.60;99.90;;;;;;5014226;28;20234;-67
2024/01/23 09:14:48;;;;;;;12.70;3.30;;;8.60;99.90;;;;;;5013016;28;20268;-68
2024/01/23 09:17:13;;;;;;;8.20;3.03;;;8.70;99.90;;;;;;5017330;28;20176;-68
2024/01/23 09:19:39;;;;;;;10.73;3.53;;;8.70;99.90;;;;;;5014594;28;20179;-67
2024/01/23 09:22:05;;;;;;;11.47;2.90;;;8.70;99.90;;;;;;5014781;28;20185;-67
2024/01/23 09:24:31;;;;;;;17.70;2.83;;;8.60;99.90;;;;;;5017233;28;20436;-67
2024/01/23 09:27:00;;;;;;;14.07;3.13;;;8.60;99.90;;;;;;5014940;28;20496;-67
2024/01/23 09:29:28;;;;;;;10.37;4.60;;;8.70;99.90;;;;;;5013513;28;20197;-67
2024/01/23 09:31:54;;;;;;;17.30;4.13;;;8.70;99.90;;;;;;5009102;28;20824;-67
2024/01/23 09:34:19;;;;;;;11.97;2.77;;;8.70;99.90;;;;;;5010157;28;20440;-67
2024/01/23 09:36:45;;;;;;;12.73;3.43;;;8.70;99.90;;;;;;5008826;28;20267;-67
2024/01/23 09:39:13;;;;;;;20.37;3.50;;;8.80;99.90;;;;;;5009530;28;20235;-67
2024/01/23 09:41:45;;;;;;;10.60;3.23;;;8.80;99.90;;;;;;5010687;28;20176;-67
2024/01/23 09:44:11;;;;;;;17.00;3.60;;;8.90;99.90;;;;;;5009486;28;20428;-67
2024/01/23 09:46:37;;;;;;;12.43;3.50;;;8.90;99.90;;;;;;5014543;28;20438;-67
2024/01/23 09:49:03;;;;;;;17.27;4.60;;;9.00;99.90;;;;;;5009055;28;20174;-68
2024/01/23 09:51:29;;;;;;;17.30;3.63;;;9.00;99.90;;;;;;5015840;28;20220;-68
2024/01/23 09:53:55;;;;;;;11.73;3.40;;;9.00;99.90;;;;;;5010596;28;20200;-68
2024/01/23 09:56:22;;;;;;;21.43;4.03;;;9.00;99.90;;;;;;5012356;28;20442;-68
2024/01/23 09:58:49;;;;;;;13.07;4.10;;;9.00;99.90;;;;;;5011055;28;20180;-66
2024/01/23 10:01:16;;;;;;;13.83;3.50;;;9.00;99.90;;;;;;5010943;28;20919;-68
2024/01/23 10:03:48;;;;;;;17.27;3.90;;;9.00;99.90;;;;;;5017821;28;20438;-68
2024/01/23 10:06:16;;;;;;;19.63;4.53;;;9.00;99.90;;;;;;5009933;28;20435;-68
2024/01/23 10:08:42;;;;;;;15.70;3.90;;;9.00;99.90;;;;;;5016985;28;20437;-68
2024/01/23 10:11:10;;;;;;;20.33;4.90;;;9.00;99.90;;;;;;5015245;28;20511;-70
2024/01/23 10:13:37;;;;;;;11.40;3.10;;;9.10;99.90;;;;;;5013499;28;20606;-68
2024/01/23 10:16:04;;;;;;;13.20;3.77;;;9.10;99.90;;;;;;5015956;28;20450;-68
2024/01/23 10:18:29;;;;;;;15.97;4.57;;;9.10;99.90;;;;;;5010629;28;20798;-68
2024/01/23 10:20:55;;;;;;;14.23;3.50;;;9.10;99.90;;;;;;5012986;28;20474;-68
2024/01/23 10:23:21;;;;;;;10.00;2.70;;;9.10;99.90;;;;;;5013749;28;20893;-68
2024/01/23 10:25:46;;;;;;;15.00;3.73;;;9.10;99.90;;;;;;5011079;28;20773;-68
2024/01/23 10:28:13;;;;;;;10.90;3.43;;;9.20;99.90;;;;;;5013649;28;20188;-67
2024/01/23 10:30:40;;;;;;;9.93;2.93;;;9.30;99.90;;;;;;5016983;28;20517;-67
2024/01/23 10:33:07;;;;;;;19.87;4.07;;;9.40;99.90;;;;;;5016425;28;20459;-67
2024/01/23 10:35:33;;;;;;;24.30;5.83;;;9.50;99.90;;;;;;5013904;28;20427;-68
2024/01/23 10:38:03;;;;;;;16.57;3.63;;;9.60;99.90;;;;;;5010240;28;20523;-68
2024/01/23 10:40:29;;;;;;;10.87;3.03;;;9.80;99.90;;;;;;5007170;28;20917;-68
2024/01/23 10:42:59;;;;;;;15.80;4.00;;;9.80;99.90;;;;;;5013101;28;20427;-67
2024/01/23 10:45:25;;;;;;;13.23;3.40;;;9.90;99.90;;;;;;5012293;28;20500;-67
2024/01/23 10:47:52;;;;;;;21.23;4.53;;;10.00;99.90;;;;;;5014189;28;20804;-69
2024/01/23 10:50:19;;;;;;;9.30;3.77;;;10.10;99.90;;;;;;5010432;28;20497;-68
2024/01/23 10:52:46;;;;;;;12.10;3.93;;;10.20;99.90;;;;;;5011172;28;20575;-68
2024/01/23 10:55:12;;;;;;;15.90;3.10;;;10.30;99.90;;;;;;5011532;28;20555;-68
2024/01/23 10:57:39;;;;;;;18.63;3.90;;;10.60;99.90;;;;;;5008915;28;20420;-69
2024/01/23 11:00:10;;;;;;;13.00;3.10;;;10.80;99.90;;;;;;5014543;28;20431;-69
2024/01/23 11:03:05;;;;;;;5.40;2.70;;;10.60;99.90;;;;;;5016063;28;20415;-67
2024/01/23 11:05:47;;;;;;;7.17;2.70;;;10.30;99.90;;;;;;5006230;28;20447;-67
2024/01/23 11:08:22;;;;;;;13.47;2.80;;;10.20;99.90;;;;;;5018750;28;20973;-67
2024/01/23 11:10:56;;;;;;;9.47;3.10;;;10.20;99.90;;;;;;5014689;28;20408;-67
2024/01/23 11:13:32;;;;;;;20.27;4.80;;;10.20;99.90;;;;;;5012326;28;20465;-68
2024/01/23 11:16:02;;;;;;;8.80;3.70;;;10.10;99.90;;;;;;5008425;28;21023;-67
2024/01/23 11:18:33;;;;;;;17.10;3.47;;;10.00;99.90;;;;;;5014911;28;20481;-67
2024/01/23 11:21:10;;;;;;;12.67;3.80;;;10.00;99.90;;;;;;5007161;28;20815;-67
2024/01/23 11:23:43;;;;;;;14.67;3.57;;;10.00;99.90;;;;;;5013143;28;20953;-67
2024/01/23 11:26:22;;;;;;;15.43;3.27;;;10.10;99.90;;;;;;5011043;28;20410;-67
2024/01/23 11:29:07;;;;;;;25.40;5.33;;;10.10;99.90;;;;;;5010331;28;20936;-67
2024/01/23 11:31:40;;;;;;;11.47;3.33;;;10.20;99.90;;;;;;5011163;28;20438;-67
2024/01/23 11:34:23;;;;;;;21.90;3.53;;;10.30;99.90;;;;;;5015987;28;20431;-67
2024/01/23 11:36:49;;;;;;;9.07;3.33;;;10.50;99.90;;;;;;5009118;28;20507;-67
2024/01/23 11:39:18;;;;;;;9.47;2.73;;;10.50;99.90;;;;;;5011111;28;20421;-67
2024/01/23 11:41:51;;;;;;;12.63;2.90;;;10.70;99.90;;;;;;5010854;28;20420;-67
2024/01/23 11:44:18;;;;;;;14.97;3.80;;;10.90;99.90;;;;;;5012207;28;20451;-68
2024/01/23 11:46:47;;;;;;;9.57;3.20;;;11.10;99.90;;;;;;5010035;28;20746;-67
2024/01/23 11:49:14;;;;;;;14.40;3.00;;;11.10;99.90;;;;;;5006966;28;20408;-67
2024/01/23 11:51:40;;;;;;;9.37;2.70;;;11.30;99.90;;;;;;5010619;28;20515;-67
2024/01/23 11:54:13;;;;;;;11.70;3.40;;;11.30;99.90;;;;;;5014217;28;21250;-67
2024/01/23 11:56:40;;;;;;;11.50;3.40;;;11.30;99.90;;;;;;5014390;28;20760;-67
2024/01/23 11:59:06;;;;;;;20.40;4.17;;;11.10;99.90;;;;;;5015457;28;20443;-67
2024/01/23 12:01:34;;;;;;;11.50;3.13;;;11.10;99.90;;;;;;5012483;28;20605;-67
2024/01/23 12:04:01;;;;;;;10.27;3.20;;;11.30;99.90;;;;;;5015054;28;20451;-67
2024/01/23 12:06:27;;;;;;;10.90;3.30;;;11.20;99.90;;;;;;5013503;28;20454;-68
2024/01/23 12:08:52;;;;;;;11.80;3.37;;;11.20;99.90;;;;;;5009414;28;20416;-68
2024/01/23 12:11:18;;;;;;;13.00;3.57;;;11.20;99.90;;;;;;5009537;28;20200;-68
2024/01/23 12:13:50;;;;;;;11.37;3.30;;;11.10;99.90;;;;;;5010769;28;20236;-67
2024/01/23 12:16:16;;;;;;;13.60;3.20;;;11.00;99.90;;;;;;5008052;28;20570;-68
2024/01/23 12:18:43;;;;;;;14.23;3.50;;;10.90;99.90;;;;;;5015629;28;20523;-68
2024/01/23 12:21:09;;;;;;;11.00;3.47;;;11.10;99.90;;;;;;5016175;28;20418;-68
2024/01/23 12:23:35;;;;;;;10.53;2.67;;;11.10;99.90;;;;;;5009323;28;20436;-67
2024/01/23 12:26:01;;;;;;;11.50;3.50;;;11.10;99.90;;;;;;5009839;28;20423;-67
2024/01/23 12:28:30;;;;;;;11.23;2.93;;;10.90;99.90;;;;;;5014838;28;20431;-68
2024/01/23 12:30:56;;;;;;;11.07;3.50;;;10.80;99.90;;;;;;5013939;28;20415;-67
2024/01/23 12:33:22;;;;;;;18.57;3.60;;;10.90;99.90;;;;;;5016660;28;20458;-67
2024/01/23 12:35:48;;;;;;;14.27;4.10;;;10.80;99.90;;;;;;5016257;28;20427;-67
2024/01/23 12:38:18;;;;;;;11.73;3.53;;;10.70;99.90;;;;;;5011191;28;20184;-67
2024/01/23 12:40:44;;;;;;;9.77;3.40;;;10.60;99.90;;;;;;5014603;28;20412;-67
2024/01/23 12:43:10;;;;;;;10.90;3.27;;;10.70;99.90;;;;;;5012513;28;20412;-67
2024/01/23 12:45:36;;;;;;;12.93;3.23;;;10.60;99.90;;;;;;5015931;28;20416;-67